Time;durP1;ratioP1;P1;durP2;ratioP2;P2;SDS_P1;SDS_P2;PMS_P1;PMS_P2;Temp;Humidity;BMP_temperature;BMP_pressure;BME280_temperature;BME280_humidity;BME280_pressure;Samples;Min_cycle;Max_cycle;Signal;HPM_P1;HPM_P2
2021/03/06 00:00:37;;;;;;;14.75;6.40;;;-2.90;99.90;;;;;;5032521;28;20030;-67
2021/03/06 00:03:03;;;;;;;11.30;5.60;;;-2.90;99.90;;;;;;5032292;28;20072;-67
2021/03/06 00:05:29;;;;;;;12.18;5.40;;;-2.90;99.90;;;;;;5014456;28;20109;-67
2021/03/06 00:07:55;;;;;;;14.73;6.13;;;-2.90;99.90;;;;;;5014622;28;20032;-67
2021/03/06 00:10:21;;;;;;;11.90;5.80;;;-2.80;99.90;;;;;;5032264;28;20068;-67
2021/03/06 00:12:49;;;;;;;15.15;6.18;;;-2.80;99.90;;;;;;5014110;28;20033;-67
2021/03/06 00:15:22;;;;;;;15.30;6.43;;;-2.90;99.90;;;;;;5032158;28;20036;-67
2021/03/06 00:17:47;;;;;;;16.48;5.90;;;-3.00;99.90;;;;;;5032179;28;20037;-67
2021/03/06 00:20:13;;;;;;;9.30;4.80;;;-3.10;99.90;;;;;;5032366;28;20021;-67
2021/03/06 00:22:39;;;;;;;14.98;5.75;;;-2.90;99.90;;;;;;5031795;28;20022;-67
2021/03/06 00:25:07;;;;;;;12.63;5.15;;;-3.00;99.90;;;;;;5014191;28;20387;-68
2021/03/06 00:27:33;;;;;;;11.73;5.70;;;-3.00;99.90;;;;;;5031868;28;20076;-67
2021/03/06 00:29:59;;;;;;;12.07;5.32;;;-3.00;99.90;;;;;;5031920;28;20029;-69
2021/03/06 00:32:24;;;;;;;13.48;5.63;;;-3.10;99.90;;;;;;5031745;28;20033;-67
2021/03/06 00:34:50;;;;;;;12.25;6.03;;;-3.20;99.90;;;;;;5031658;28;20082;-68
2021/03/06 00:37:15;;;;;;;10.95;5.00;;;-3.10;99.90;;;;;;5031735;28;20021;-67
2021/03/06 00:39:41;;;;;;;12.60;6.05;;;-3.30;99.90;;;;;;5032201;28;20040;-69
2021/03/06 00:42:06;;;;;;;10.93;5.72;;;-3.40;99.90;;;;;;5031360;28;20069;-67
2021/03/06 00:44:32;;;;;;;13.27;5.35;;;-3.40;99.90;;;;;;5031584;28;20033;-68
2021/03/06 00:46:57;;;;;;;13.82;5.75;;;-3.40;99.90;;;;;;5031645;28;20499;-68
2021/03/06 00:49:23;;;;;;;13.10;6.57;;;-3.30;99.90;;;;;;5031539;28;20503;-67
2021/03/06 00:51:49;;;;;;;14.35;6.53;;;-3.30;99.90;;;;;;5031291;28;20534;-67
2021/03/06 00:54:15;;;;;;;16.85;6.70;;;-3.40;99.90;;;;;;5031665;28;20025;-67
2021/03/06 00:56:40;;;;;;;12.65;6.15;;;-3.40;99.90;;;;;;5031341;28;20104;-67
2021/03/06 00:59:06;;;;;;;14.00;5.82;;;-3.40;99.90;;;;;;5013628;28;20076;-68
2021/03/06 01:01:31;;;;;;;11.45;6.05;;;-3.30;99.90;;;;;;5013592;28;20522;-67
2021/03/06 01:03:57;;;;;;;12.63;5.35;;;-3.30;99.90;;;;;;5030883;28;20056;-67
2021/03/06 01:06:23;;;;;;;14.40;6.38;;;-3.30;99.90;;;;;;5030358;28;20105;-67
2021/03/06 01:08:49;;;;;;;14.90;6.28;;;-3.30;99.90;;;;;;5013462;28;20551;-67
2021/03/06 01:11:14;;;;;;;9.63;5.65;;;-3.30;99.90;;;;;;5031123;28;20021;-67
2021/03/06 01:13:40;;;;;;;13.15;6.20;;;-3.40;99.90;;;;;;5030754;28;20133;-69
2021/03/06 01:16:05;;;;;;;13.23;6.30;;;-3.50;99.90;;;;;;5013436;28;20025;-67
2021/03/06 01:18:31;;;;;;;14.38;5.85;;;-3.40;99.90;;;;;;5031196;28;20024;-67
2021/03/06 01:20:57;;;;;;;14.07;6.82;;;-3.40;99.90;;;;;;5036474;28;20021;-70
2021/03/06 01:23:22;;;;;;;16.77;6.35;;;-3.40;99.90;;;;;;5039879;28;20025;-67
2021/03/06 01:25:48;;;;;;;15.60;5.93;;;-3.40;99.90;;;;;;5048168;28;20055;-68
2021/03/06 01:28:14;;;;;;;10.93;6.10;;;-3.60;99.90;;;;;;5051115;28;20025;-67
2021/03/06 01:30:39;;;;;;;10.43;6.00;;;-3.70;99.90;;;;;;5043914;28;20029;-69
2021/03/06 01:33:06;;;;;;;12.88;6.18;;;-3.60;99.90;;;;;;5014401;28;20029;-67
2021/03/06 01:35:32;;;;;;;13.30;5.93;;;-3.60;99.90;;;;;;5013382;28;20021;-67
2021/03/06 01:37:58;;;;;;;13.50;6.25;;;-3.60;99.90;;;;;;5013333;28;20384;-67
2021/03/06 01:40:28;;;;;;;12.35;6.10;;;-3.60;99.90;;;;;;5031068;28;20061;-68
2021/03/06 01:42:54;;;;;;;13.23;6.25;;;-3.60;99.90;;;;;;5030692;28;20032;-69
2021/03/06 01:45:20;;;;;;;13.77;6.50;;;-3.70;99.90;;;;;;5030806;28;20403;-67
2021/03/06 01:47:46;;;;;;;13.07;6.18;;;-3.70;99.90;;;;;;5030890;28;20018;-68
2021/03/06 01:50:17;;;;;;;12.52;5.53;;;-3.80;99.90;;;;;;5030837;28;20030;-69
2021/03/06 01:52:43;;;;;;;17.30;7.07;;;-3.80;99.90;;;;;;5030500;28;20542;-67
2021/03/06 01:55:09;;;;;;;13.20;6.47;;;-3.90;99.90;;;;;;5030688;28;20037;-68
2021/03/06 01:57:34;;;;;;;19.45;6.60;;;-3.80;99.90;;;;;;5030721;28;20026;-67
2021/03/06 02:00:00;;;;;;;15.32;6.50;;;-3.80;99.90;;;;;;5030719;28;20503;-68
2021/03/06 02:02:26;;;;;;;15.00;6.57;;;-3.80;99.90;;;;;;5030472;28;20393;-68
2021/03/06 02:04:52;;;;;;;15.88;6.60;;;-3.80;99.90;;;;;;5030571;28;20033;-68
2021/03/06 02:07:18;;;;;;;13.45;6.47;;;-3.80;99.90;;;;;;5030593;28;20030;-67
2021/03/06 02:09:43;;;;;;;19.10;8.60;;;-3.90;99.90;;;;;;5030561;28;20388;-67
2021/03/06 02:12:23;;;;;;;14.73;6.82;;;-3.90;99.90;;;;;;5030200;28;20037;-67
2021/03/06 02:15:26;;;;;;;15.75;7.65;;;-3.90;99.90;;;;;;5030419;28;20063;-68
2021/03/06 02:18:01;;;;;;;15.82;6.85;;;-3.90;99.90;;;;;;5032750;28;20078;-68
2021/03/06 02:20:51;;;;;;;13.13;6.63;;;-3.90;99.90;;;;;;5034486;28;20013;-70
2021/03/06 02:23:38;;;;;;;16.67;7.10;;;-4.00;99.90;;;;;;5034024;28;20021;-68
2021/03/06 02:26:25;;;;;;;13.57;6.40;;;-4.10;99.90;;;;;;5034172;28;20028;-69
2021/03/06 02:29:09;;;;;;;13.02;6.32;;;-4.10;99.90;;;;;;5034232;28;20049;-67
2021/03/06 02:31:38;;;;;;;15.57;6.93;;;-4.10;99.90;;;;;;5034185;28;20053;-68
2021/03/06 02:34:07;;;;;;;16.17;7.35;;;-4.00;99.90;;;;;;5016037;28;20392;-68
2021/03/06 02:36:35;;;;;;;14.18;6.82;;;-4.00;99.90;;;;;;5033973;28;20021;-68
2021/03/06 02:39:03;;;;;;;14.18;7.35;;;-4.10;99.90;;;;;;5034112;28;20109;-69
2021/03/06 02:41:31;;;;;;;14.27;6.88;;;-4.00;99.90;;;;;;5033978;28;20025;-68
2021/03/06 02:43:58;;;;;;;14.45;6.85;;;-4.00;99.90;;;;;;5033552;28;20030;-68
2021/03/06 02:46:25;;;;;;;15.77;7.68;;;-4.00;99.90;;;;;;5016094;28;20626;-69
2021/03/06 02:48:53;;;;;;;13.70;7.13;;;-3.90;99.90;;;;;;5033864;28;20064;-68
2021/03/06 02:51:18;;;;;;;14.57;7.05;;;-3.90;99.90;;;;;;5015926;28;20025;-67
2021/03/06 02:53:44;;;;;;;17.30;7.38;;;-4.00;99.90;;;;;;5033330;28;20087;-67
2021/03/06 02:56:10;;;;;;;19.70;7.35;;;-4.00;99.90;;;;;;5033865;28;20053;-67
2021/03/06 02:58:35;;;;;;;16.35;7.70;;;-4.00;99.90;;;;;;5033931;28;20140;-67
2021/03/06 03:01:07;;;;;;;18.15;7.72;;;-4.10;99.90;;;;;;5033989;28;20372;-69
2021/03/06 03:04:00;;;;;;;14.55;6.57;;;-4.10;99.90;;;;;;5033181;28;20419;-67
2021/03/06 03:06:38;;;;;;;15.10;7.07;;;-4.00;99.90;;;;;;5033447;28;20516;-68
2021/03/06 03:09:34;;;;;;;19.25;7.53;;;-4.10;99.90;;;;;;5033466;28;20057;-67
2021/03/06 03:12:05;;;;;;;18.08;8.65;;;-4.20;99.90;;;;;;4971625;28;20181;-67
2021/03/06 03:14:34;;;;;;;15.85;8.15;;;-4.30;99.90;;;;;;4971968;28;20039;-68
2021/03/06 03:17:16;;;;;;;16.15;8.52;;;-4.30;99.90;;;;;;4970907;28;20262;-69
2021/03/06 03:19:49;;;;;;;15.20;7.55;;;-4.30;99.90;;;;;;4972060;28;20054;-68
2021/03/06 03:22:19;;;;;;;19.63;7.60;;;-4.30;99.90;;;;;;4971854;28;20035;-67
2021/03/06 03:24:47;;;;;;;16.15;6.70;;;-4.30;99.90;;;;;;4972071;28;20035;-67
2021/03/06 03:27:14;;;;;;;23.13;7.82;;;-4.40;99.90;;;;;;4971862;28;20046;-67
2021/03/06 03:29:40;;;;;;;17.98;7.40;;;-4.30;99.90;;;;;;4970814;28;20070;-67
2021/03/06 03:32:09;;;;;;;18.27;7.68;;;-4.30;99.90;;;;;;4955322;28;20031;-69
2021/03/06 03:34:36;;;;;;;16.85;7.68;;;-4.30;99.90;;;;;;4955304;28;20501;-68
2021/03/06 03:37:02;;;;;;;15.35;7.80;;;-4.30;99.90;;;;;;4972049;28;20406;-67
2021/03/06 03:39:29;;;;;;;17.17;8.73;;;-4.30;99.90;;;;;;4971683;28;20405;-68
2021/03/06 03:41:55;;;;;;;17.75;7.88;;;-4.30;99.90;;;;;;4971228;28;20043;-69
2021/03/06 03:44:22;;;;;;;19.20;8.25;;;-4.40;99.90;;;;;;4971479;28;20034;-70
2021/03/06 03:46:47;;;;;;;17.02;7.72;;;-4.40;99.90;;;;;;4971485;28;20031;-68
2021/03/06 03:49:20;;;;;;;17.50;8.60;;;-4.50;99.90;;;;;;5005738;28;20034;-68
2021/03/06 03:51:46;;;;;;;16.77;7.50;;;-4.40;99.90;;;;;;5014624;28;20403;-68
2021/03/06 03:54:14;;;;;;;14.80;7.88;;;-4.40;99.90;;;;;;5032488;28;20441;-67
2021/03/06 03:56:40;;;;;;;18.55;8.90;;;-4.50;99.90;;;;;;5014821;28;20029;-68
2021/03/06 03:59:06;;;;;;;16.88;8.32;;;-4.50;99.90;;;;;;5014783;28;20026;-68
2021/03/06 04:01:39;;;;;;;17.30;8.80;;;-4.50;99.90;;;;;;5032494;28;20036;-68
2021/03/06 04:04:06;;;;;;;16.40;8.35;;;-4.50;99.90;;;;;;5032441;28;20053;-69
2021/03/06 04:06:32;;;;;;;16.30;7.75;;;-4.50;99.90;;;;;;5032368;28;20088;-68
2021/03/06 04:08:57;;;;;;;16.92;7.93;;;-4.60;99.90;;;;;;5032751;28;20038;-69
2021/03/06 04:11:23;;;;;;;16.98;7.78;;;-4.50;99.90;;;;;;5032328;28;20091;-68
2021/03/06 04:13:49;;;;;;;19.50;8.40;;;-4.40;99.90;;;;;;5031837;28;20394;-70
2021/03/06 04:16:15;;;;;;;19.70;8.88;;;-4.50;99.90;;;;;;5032380;28;20045;-68
2021/03/06 04:18:40;;;;;;;19.88;8.43;;;-4.50;99.90;;;;;;5032125;28;20057;-68
2021/03/06 04:21:06;;;;;;;14.30;7.72;;;-4.50;99.90;;;;;;5032170;28;20033;-67
2021/03/06 04:23:31;;;;;;;19.25;8.70;;;-4.60;99.90;;;;;;5014027;28;20096;-67
2021/03/06 04:25:57;;;;;;;17.63;8.32;;;-4.70;99.90;;;;;;5032058;28;20033;-68
2021/03/06 04:28:23;;;;;;;19.92;9.80;;;-4.80;99.90;;;;;;5031977;28;20033;-68
2021/03/06 04:30:48;;;;;;;18.13;7.82;;;-4.90;99.90;;;;;;5031986;28;20156;-67
2021/03/06 04:33:14;;;;;;;17.15;9.10;;;-4.80;99.90;;;;;;5031448;28;20029;-68
2021/03/06 04:35:39;;;;;;;17.73;8.75;;;-4.80;99.90;;;;;;5031798;28;20014;-68
2021/03/06 04:38:05;;;;;;;23.50;9.27;;;-4.70;99.90;;;;;;5031895;28;20036;-70
2021/03/06 04:40:30;;;;;;;18.40;8.27;;;-4.70;99.90;;;;;;5031640;28;20025;-67
2021/03/06 04:42:56;;;;;;;15.93;8.48;;;-4.80;99.90;;;;;;5013676;28;20392;-67
2021/03/06 04:45:21;;;;;;;20.90;8.77;;;-4.80;99.90;;;;;;5031650;28;20052;-68
2021/03/06 04:47:47;;;;;;;20.73;9.20;;;-4.90;99.90;;;;;;5031680;28;20112;-70
2021/03/06 04:50:13;;;;;;;17.13;7.93;;;-4.90;99.90;;;;;;5031963;28;20425;-68
2021/03/06 04:52:39;;;;;;;18.35;8.70;;;-4.90;99.90;;;;;;5031431;28;20083;-68
2021/03/06 04:55:06;;;;;;;19.40;8.60;;;-4.90;99.90;;;;;;5013716;28;20546;-67
2021/03/06 04:57:32;;;;;;;18.52;8.35;;;-4.90;99.90;;;;;;5031453;28;20032;-69
2021/03/06 04:59:59;;;;;;;21.38;9.48;;;-4.80;99.90;;;;;;5031607;28;20025;-70
2021/03/06 05:02:25;;;;;;;18.85;8.30;;;-4.80;99.90;;;;;;5031306;28;20018;-67
2021/03/06 05:04:50;;;;;;;22.42;9.48;;;-4.80;99.90;;;;;;5031383;28;20068;-68
2021/03/06 05:07:16;;;;;;;15.07;8.65;;;-4.80;99.90;;;;;;5013858;28;20021;-71
2021/03/06 05:09:41;;;;;;;15.38;7.82;;;-4.80;99.90;;;;;;5031658;28;20104;-67
2021/03/06 05:12:07;;;;;;;19.63;9.32;;;-4.80;99.90;;;;;;5031136;28;20105;-68
2021/03/06 05:14:33;;;;;;;18.25;8.52;;;-4.80;99.90;;;;;;5031169;28;20151;-68
2021/03/06 05:16:58;;;;;;;19.88;8.88;;;-4.80;99.90;;;;;;5031133;28;20549;-69
2021/03/06 05:19:24;;;;;;;19.02;9.15;;;-4.90;99.90;;;;;;5031167;28;20030;-67
2021/03/06 05:21:49;;;;;;;20.02;8.48;;;-4.90;99.90;;;;;;5030842;28;20021;-67
2021/03/06 05:24:15;;;;;;;19.00;9.15;;;-4.90;99.90;;;;;;5030957;28;20104;-68
2021/03/06 05:26:40;;;;;;;18.13;8.82;;;-4.90;99.90;;;;;;5031487;28;20029;-69
2021/03/06 05:29:06;;;;;;;16.20;8.43;;;-5.00;99.90;;;;;;5031015;28;20412;-67
2021/03/06 05:31:31;;;;;;;18.60;9.10;;;-5.10;99.90;;;;;;5030909;28;20026;-68
2021/03/06 05:33:57;;;;;;;17.45;8.85;;;-5.10;99.90;;;;;;5012829;28;20025;-67
2021/03/06 05:36:23;;;;;;;17.83;8.75;;;-5.10;99.90;;;;;;5030822;28;20056;-69
2021/03/06 05:38:49;;;;;;;17.70;8.20;;;-5.10;99.90;;;;;;5013104;28;20499;-68
2021/03/06 05:41:19;;;;;;;19.23;8.70;;;-5.10;99.90;;;;;;5031335;28;20025;-67
2021/03/06 05:43:45;;;;;;;19.00;8.30;;;-5.10;99.90;;;;;;5031071;28;20048;-69
2021/03/06 05:46:13;;;;;;;18.73;9.05;;;-5.10;99.90;;;;;;5030704;28;20472;-68
2021/03/06 05:48:39;;;;;;;23.33;9.45;;;-5.00;99.90;;;;;;5030763;28;20112;-69
2021/03/06 05:51:06;;;;;;;17.42;7.97;;;-5.10;99.90;;;;;;5013400;28;20053;-67
2021/03/06 05:53:32;;;;;;;19.98;7.95;;;-5.00;99.90;;;;;;5036557;28;20025;-68
2021/03/06 05:56:02;;;;;;;17.60;8.65;;;-4.90;99.90;;;;;;5037252;28;20021;-68
2021/03/06 05:58:30;;;;;;;18.27;7.87;;;-4.90;99.90;;;;;;5037249;28;20021;-69
2021/03/06 06:00:56;;;;;;;15.85;7.85;;;-4.90;99.90;;;;;;5037186;28;20366;-67
2021/03/06 06:03:22;;;;;;;16.58;8.52;;;-4.90;99.90;;;;;;5037081;28;20112;-69
2021/03/06 06:05:48;;;;;;;17.98;9.20;;;-4.90;99.90;;;;;;5037152;28;20040;-67
2021/03/06 06:08:15;;;;;;;21.83;9.05;;;-4.90;99.90;;;;;;5037220;28;20021;-68
2021/03/06 06:10:41;;;;;;;21.48;8.40;;;-5.00;99.90;;;;;;5037151;28;20116;-68
2021/03/06 06:13:07;;;;;;;16.13;8.30;;;-4.90;99.90;;;;;;5036773;28;20101;-67
2021/03/06 06:15:32;;;;;;;16.80;8.70;;;-4.90;99.90;;;;;;5019235;28;20498;-67
2021/03/06 06:17:58;;;;;;;17.00;8.15;;;-4.80;99.90;;;;;;5037105;28;20026;-67
2021/03/06 06:20:24;;;;;;;24.63;10.18;;;-4.70;99.90;;;;;;5019301;28;20022;-67
2021/03/06 06:23:12;;;;;;;15.13;7.40;;;-4.60;99.90;;;;;;5036835;28;20021;-67
2021/03/06 06:25:38;;;;;;;17.02;7.68;;;-4.60;99.90;;;;;;5036946;28;20018;-69
2021/03/06 06:28:05;;;;;;;18.33;8.30;;;-4.60;99.90;;;;;;5037037;28;20151;-68
2021/03/06 06:30:31;;;;;;;14.65;7.45;;;-4.50;99.90;;;;;;5036999;28;20214;-67
2021/03/06 06:32:57;;;;;;;16.73;8.65;;;-4.40;99.90;;;;;;5036726;28;20044;-67
2021/03/06 06:35:23;;;;;;;238.90;83.88;;;-4.40;99.90;;;;;;5036826;28;20472;-67
2021/03/06 06:37:56;;;;;;;51.60;20.27;;;-4.30;99.90;;;;;;5037157;28;20022;-66
2021/03/06 06:40:23;;;;;;;54.97;25.65;;;-4.20;99.90;;;;;;5036715;28;20034;-69
2021/03/06 06:42:49;;;;;;;46.10;22.45;;;-4.10;99.90;;;;;;5036468;28;20096;-67
2021/03/06 06:45:16;;;;;;;40.60;20.83;;;-4.10;99.90;;;;;;5036778;28;20151;-67
2021/03/06 06:47:43;;;;;;;44.67;27.90;;;-4.10;99.90;;;;;;5036836;28;20029;-67
2021/03/06 06:50:11;;;;;;;30.35;14.70;;;-4.10;99.90;;;;;;5036760;28;20017;-67
2021/03/06 06:52:39;;;;;;;21.30;10.43;;;-4.00;99.90;;;;;;5036546;28;20029;-67
2021/03/06 06:55:08;;;;;;;18.67;9.65;;;-3.90;99.90;;;;;;5036585;28;20091;-68
2021/03/06 06:57:34;;;;;;;13.23;7.30;;;-3.90;99.90;;;;;;5036780;28;20024;-67
2021/03/06 07:00:04;;;;;;;21.92;9.73;;;-3.90;99.90;;;;;;5036706;28;20021;-66
2021/03/06 07:02:30;;;;;;;24.08;12.57;;;-3.90;99.90;;;;;;5036251;28;20067;-69
2021/03/06 07:04:57;;;;;;;31.52;16.02;;;-3.80;99.90;;;;;;5033517;28;20037;-66
2021/03/06 07:07:26;;;;;;;29.80;14.38;;;-3.70;99.90;;;;;;5033526;28;20101;-70
2021/03/06 07:10:01;;;;;;;32.72;14.82;;;-3.60;99.90;;;;;;5033614;28;20026;-67
2021/03/06 07:12:33;;;;;;;30.92;14.57;;;-3.40;99.90;;;;;;5033340;28;20025;-66
2021/03/06 07:14:59;;;;;;;28.52;11.98;;;-3.30;99.90;;;;;;5033324;28;20083;-67
2021/03/06 07:17:36;;;;;;;27.83;10.75;;;-3.20;99.90;;;;;;5033396;28;20167;-67
2021/03/06 07:20:03;;;;;;;23.42;8.98;;;-3.20;99.90;;;;;;5033495;28;20091;-67
2021/03/06 07:22:30;;;;;;;25.40;10.38;;;-3.10;99.90;;;;;;5033149;28;20023;-67
2021/03/06 07:24:56;;;;;;;23.25;9.60;;;-3.00;99.90;;;;;;5033504;28;20032;-67
2021/03/06 07:27:21;;;;;;;22.17;10.38;;;-3.00;99.90;;;;;;5015674;28;20033;-69
2021/03/06 07:29:47;;;;;;;19.73;9.00;;;-2.90;99.90;;;;;;5033278;28;20031;-67
2021/03/06 07:32:15;;;;;;;18.35;8.93;;;-2.90;99.90;;;;;;5033073;28;20029;-67
2021/03/06 07:34:40;;;;;;;20.10;9.05;;;-2.80;99.90;;;;;;5033047;28;20495;-67
2021/03/06 07:37:07;;;;;;;21.05;10.15;;;-2.70;99.90;;;;;;5015324;28;20017;-67
2021/03/06 07:39:39;;;;;;;19.48;10.13;;;-2.60;99.90;;;;;;5033002;28;20104;-66
2021/03/06 07:42:15;;;;;;;24.13;10.57;;;-2.60;99.90;;;;;;5032671;28;20045;-67
2021/03/06 07:44:43;;;;;;;23.33;9.93;;;-2.40;99.90;;;;;;5032744;28;20480;-67
2021/03/06 07:47:12;;;;;;;22.08;9.75;;;-2.30;99.90;;;;;;5032892;28;20021;-67
2021/03/06 07:49:40;;;;;;;17.10;9.18;;;-2.20;99.90;;;;;;5032993;28;20033;-67
2021/03/06 07:52:06;;;;;;;16.60;7.88;;;-2.20;99.90;;;;;;5032781;28;20325;-67
2021/03/06 07:54:33;;;;;;;17.42;8.88;;;-2.20;99.90;;;;;;5032570;28;20398;-70
2021/03/06 07:56:58;;;;;;;17.15;8.85;;;-2.10;99.90;;;;;;5032626;28;20099;-70
2021/03/06 07:59:54;;;;;;;19.83;8.45;;;-2.00;99.90;;;;;;5033608;28;20053;-68
2021/03/06 08:02:29;;;;;;;18.30;8.55;;;-1.90;99.90;;;;;;4951470;29;20075;-67
2021/03/06 08:04:54;;;;;;;18.50;8.63;;;-1.80;99.90;;;;;;4951627;28;20546;-68
2021/03/06 08:07:23;;;;;;;18.38;8.15;;;-1.80;99.90;;;;;;4951659;29;20126;-70
2021/03/06 08:10:01;;;;;;;19.13;8.15;;;-1.60;99.90;;;;;;4935654;29;20031;-70
2021/03/06 08:12:31;;;;;;;17.88;8.25;;;-1.60;99.90;;;;;;4935290;29;20122;-69
2021/03/06 08:14:57;;;;;;;18.23;9.18;;;-1.40;99.90;;;;;;4934918;29;20031;-70
2021/03/06 08:17:37;;;;;;;16.92;8.70;;;-1.30;99.90;;;;;;4951653;29;20386;-70
2021/03/06 08:20:06;;;;;;;17.48;8.25;;;-1.30;99.90;;;;;;4951567;29;20445;-69
2021/03/06 08:22:32;;;;;;;18.10;9.00;;;-1.10;99.90;;;;;;4951254;29;20028;-69
2021/03/06 08:25:15;;;;;;;17.05;8.77;;;-1.00;99.90;;;;;;4951073;28;20047;-70
2021/03/06 08:27:41;;;;;;;18.98;9.23;;;-0.80;99.90;;;;;;4935579;29;20070;-69
2021/03/06 08:30:25;;;;;;;17.38;8.18;;;-0.60;99.90;;;;;;4951185;29;20031;-68
2021/03/06 08:33:15;;;;;;;18.88;9.13;;;-0.50;99.90;;;;;;4951044;29;20047;-68
2021/03/06 08:35:40;;;;;;;14.40;7.38;;;-0.40;99.90;;;;;;4951340;29;20028;-69
2021/03/06 08:38:29;;;;;;;18.13;8.35;;;-0.20;99.90;;;;;;4975055;28;20109;-70
2021/03/06 08:40:55;;;;;;;16.33;7.78;;;-0.20;99.90;;;;;;5033757;28;20387;-69
2021/03/06 08:43:21;;;;;;;16.38;8.27;;;0.10;99.90;;;;;;5033318;28;20029;-69
2021/03/06 08:45:47;;;;;;;14.65;7.72;;;0.20;99.90;;;;;;5033729;28;20449;-69
2021/03/06 08:48:13;;;;;;;18.60;7.85;;;0.20;99.90;;;;;;5051312;28;20082;-69
2021/03/06 08:50:39;;;;;;;19.60;7.78;;;0.30;99.90;;;;;;5051460;28;20368;-69
2021/03/06 08:53:07;;;;;;;17.67;8.13;;;0.40;99.90;;;;;;5051066;28;20043;-69
2021/03/06 08:55:34;;;;;;;16.52;7.70;;;0.50;99.90;;;;;;5051361;28;20020;-68
2021/03/06 08:58:10;;;;;;;16.73;7.50;;;0.50;99.90;;;;;;5051492;28;20378;-69
2021/03/06 09:00:42;;;;;;;15.27;8.35;;;0.70;99.90;;;;;;5033424;28;20052;-68
2021/03/06 09:03:13;;;;;;;20.45;8.93;;;0.90;99.90;;;;;;5051169;28;20550;-71
2021/03/06 09:05:40;;;;;;;16.10;7.68;;;0.90;99.90;;;;;;5051181;28;20037;-70
2021/03/06 09:08:06;;;;;;;18.17;8.30;;;1.10;99.90;;;;;;5050946;28;20029;-69
2021/03/06 09:10:57;;;;;;;19.38;8.40;;;1.20;99.90;;;;;;5033200;28;20157;-69
2021/03/06 09:13:25;;;;;;;17.70;8.68;;;1.30;99.90;;;;;;5050711;28;20033;-70
2021/03/06 09:15:53;;;;;;;16.90;7.68;;;1.40;99.90;;;;;;5051151;28;20440;-70
2021/03/06 09:18:24;;;;;;;16.00;8.35;;;1.70;99.90;;;;;;5033190;28;20052;-70
2021/03/06 09:20:54;;;;;;;18.13;8.15;;;1.80;99.90;;;;;;5033233;28;20071;-70
2021/03/06 09:23:31;;;;;;;16.60;7.47;;;1.90;99.90;;;;;;5050819;28;20056;-73
2021/03/06 09:26:01;;;;;;;17.40;8.50;;;2.00;99.90;;;;;;5050679;28;20040;-70
2021/03/06 09:28:29;;;;;;;21.13;8.43;;;2.10;99.90;;;;;;5032629;28;20020;-70
2021/03/06 09:30:56;;;;;;;15.60;8.20;;;2.30;99.90;;;;;;5050915;28;20021;-70
2021/03/06 09:33:30;;;;;;;15.45;7.90;;;2.40;99.90;;;;;;5050475;28;20028;-70
2021/03/06 09:36:03;;;;;;;17.05;8.15;;;2.50;99.80;;;;;;5033019;28;20076;-70
2021/03/06 09:38:28;;;;;;;45.05;18.50;;;2.60;99.40;;;;;;5050900;28;20013;-71
2021/03/06 09:40:55;;;;;;;18.65;9.45;;;2.70;97.10;;;;;;5033014;28;20029;-72
2021/03/06 09:43:26;;;;;;;15.90;8.25;;;2.90;93.00;;;;;;5050699;28;20021;-71
2021/03/06 09:45:52;;;;;;;17.40;8.55;;;3.30;85.30;;;;;;5033014;28;20021;-70
2021/03/06 09:48:18;;;;;;;20.38;12.32;;;3.60;81.20;;;;;;5050700;28;20033;-70
2021/03/06 09:50:45;;;;;;;19.80;9.00;;;3.70;81.30;;;;;;5041692;28;20105;-71
2021/03/06 09:53:19;;;;;;;19.42;9.98;;;3.80;80.50;;;;;;5030360;28;20021;-71
2021/03/06 09:55:45;;;;;;;22.45;11.10;;;3.90;79.20;;;;;;5013028;28;20025;-73
2021/03/06 09:58:16;;;;;;;18.55;10.70;;;4.00;83.90;;;;;;5021924;28;20025;-71
2021/03/06 10:00:41;;;;;;;17.05;8.48;;;3.90;83.30;;;;;;5032495;28;20021;-71
2021/03/06 10:03:07;;;;;;;18.25;9.30;;;4.00;80.10;;;;;;5050324;28;20025;-72
2021/03/06 10:05:33;;;;;;;19.90;9.18;;;4.10;82.00;;;;;;5050392;28;20427;-71
2021/03/06 10:07:59;;;;;;;21.20;9.85;;;4.20;74.30;;;;;;5049844;28;20383;-71
2021/03/06 10:10:25;;;;;;;20.70;10.18;;;4.20;76.20;;;;;;5032437;28;20402;-71
2021/03/06 10:12:52;;;;;;;17.17;8.88;;;4.20;71.50;;;;;;5050133;28;20078;-71
2021/03/06 10:15:19;;;;;;;24.48;11.02;;;4.30;74.40;;;;;;5050181;28;20082;-71
2021/03/06 10:17:45;;;;;;;15.13;8.15;;;4.30;77.50;;;;;;5032600;28;20047;-71
2021/03/06 10:20:11;;;;;;;15.52;7.95;;;4.40;75.70;;;;;;5050041;28;20146;-72
2021/03/06 10:22:45;;;;;;;19.65;9.93;;;4.40;74.80;;;;;;5031837;28;20021;-70
2021/03/06 10:25:12;;;;;;;16.48;7.07;;;4.50;70.00;;;;;;5030972;28;20029;-71
2021/03/06 10:27:44;;;;;;;16.10;8.13;;;4.60;73.80;;;;;;5048902;28;20107;-70
2021/03/06 10:30:12;;;;;;;16.35;6.93;;;4.70;70.70;;;;;;5049838;28;20440;-71
2021/03/06 10:32:39;;;;;;;11.52;6.88;;;4.70;74.30;;;;;;5049881;28;20052;-72
2021/03/06 10:35:06;;;;;;;14.32;6.95;;;4.70;69.60;;;;;;5050012;28;20051;-70
2021/03/06 10:37:31;;;;;;;14.25;7.70;;;4.80;69.40;;;;;;5050235;28;20029;-73
2021/03/06 10:39:58;;;;;;;14.50;7.22;;;4.70;78.70;;;;;;5035903;28;20074;-71
2021/03/06 10:42:45;;;;;;;13.82;7.03;;;4.80;69.50;;;;;;5053644;28;20017;-71
2021/03/06 10:45:28;;;;;;;14.82;7.85;;;4.90;68.80;;;;;;5053748;28;20033;-71
2021/03/06 10:47:56;;;;;;;13.90;7.03;;;4.90;70.10;;;;;;5053872;28;20051;-71
2021/03/06 10:50:26;;;;;;;14.05;7.50;;;4.90;70.80;;;;;;5053794;28;20556;-71
2021/03/06 10:53:11;;;;;;;13.33;6.83;;;4.90;69.70;;;;;;5053500;28;20124;-71
2021/03/06 10:55:37;;;;;;;15.15;8.02;;;5.00;69.40;;;;;;5035719;28;20040;-70
2021/03/06 10:58:03;;;;;;;14.57;7.70;;;5.10;67.50;;;;;;5053495;28;20029;-72
2021/03/06 11:00:29;;;;;;;19.13;8.55;;;5.00;65.50;;;;;;5053583;28;20031;-70
2021/03/06 11:02:57;;;;;;;19.73;9.77;;;5.00;66.80;;;;;;5053317;28;20025;-71
2021/03/06 11:05:24;;;;;;;15.98;8.43;;;5.20;67.30;;;;;;5053641;28;20030;-71
2021/03/06 11:07:50;;;;;;;15.82;7.80;;;5.10;68.40;;;;;;5053401;28;20491;-71
2021/03/06 11:10:17;;;;;;;13.68;7.40;;;5.10;65.70;;;;;;5053390;28;20032;-70
2021/03/06 11:12:57;;;;;;;15.68;7.55;;;5.10;67.80;;;;;;5035143;28;20067;-71
2021/03/06 11:15:25;;;;;;;13.70;7.38;;;5.10;66.50;;;;;;5053179;28;20056;-72
2021/03/06 11:17:54;;;;;;;12.65;7.10;;;5.10;73.20;;;;;;5035578;28;20496;-70
2021/03/06 11:20:21;;;;;;;15.57;7.38;;;5.10;67.30;;;;;;5053261;28;20032;-71
2021/03/06 11:22:46;;;;;;;11.98;5.95;;;5.20;70.20;;;;;;5052962;28;20023;-72
2021/03/06 11:25:14;;;;;;;12.38;6.38;;;5.30;70.10;;;;;;5052967;28;20097;-71
2021/03/06 11:27:49;;;;;;;13.55;6.43;;;5.40;64.80;;;;;;5035214;28;20025;-70
2021/03/06 11:30:23;;;;;;;11.30;6.03;;;5.40;62.80;;;;;;5035138;28;20025;-72
2021/03/06 11:32:49;;;;;;;10.88;4.72;;;5.30;66.40;;;;;;5052815;28;20029;-70
2021/03/06 11:35:16;;;;;;;10.93;5.75;;;5.30;65.00;;;;;;5035005;28;20032;-69
2021/03/06 11:37:42;;;;;;;9.63;4.68;;;5.40;64.60;;;;;;5034922;28;20077;-71
2021/03/06 11:40:09;;;;;;;15.88;8.23;;;5.40;69.60;;;;;;5052900;28;20536;-71
2021/03/06 11:42:35;;;;;;;7.32;4.00;;;5.50;65.30;;;;;;5034748;28;20029;-70
2021/03/06 11:45:01;;;;;;;9.95;4.85;;;5.60;62.60;;;;;;5053477;28;20048;-72
2021/03/06 11:47:26;;;;;;;11.00;5.53;;;5.70;62.40;;;;;;5052773;28;20126;-73
2021/03/06 11:49:52;;;;;;;9.93;4.20;;;5.80;65.20;;;;;;5051967;28;20029;-72
2021/03/06 11:52:18;;;;;;;9.13;4.28;;;5.70;66.40;;;;;;5034783;28;20120;-71
2021/03/06 11:54:43;;;;;;;7.75;3.95;;;5.80;62.10;;;;;;5052512;28;20047;-70
2021/03/06 11:57:09;;;;;;;8.63;3.50;;;6.20;62.70;;;;;;5034830;28;20055;-72
2021/03/06 11:59:34;;;;;;;7.22;3.58;;;6.70;60.80;;;;;;5052596;28;20387;-72
2021/03/06 12:02:00;;;;;;;6.50;3.38;;;7.30;58.60;;;;;;5052240;28;20075;-72
2021/03/06 12:04:26;;;;;;;7.60;3.90;;;7.60;50.40;;;;;;5052329;28;20029;-72
2021/03/06 12:06:51;;;;;;;8.10;3.72;;;7.80;51.20;;;;;;5052414;28;20048;-72
2021/03/06 12:09:17;;;;;;;6.95;3.10;;;8.30;51.30;;;;;;5052513;28;20529;-73
2021/03/06 12:11:42;;;;;;;6.55;3.20;;;9.00;50.80;;;;;;5052202;28;20032;-72
2021/03/06 12:14:08;;;;;;;5.50;3.10;;;9.50;48.60;;;;;;5051938;28;20025;-72
2021/03/06 12:16:35;;;;;;;7.78;3.45;;;9.90;50.00;;;;;;5034382;28;20017;-72
2021/03/06 12:19:01;;;;;;;5.60;3.15;;;10.50;44.90;;;;;;5034362;28;20491;-72
2021/03/06 12:21:27;;;;;;;8.70;3.15;;;10.50;40.40;;;;;;5034136;28;20032;-72
2021/03/06 12:23:52;;;;;;;9.15;3.08;;;10.40;41.40;;;;;;5033757;28;20411;-73
2021/03/06 12:26:18;;;;;;;8.60;3.63;;;10.60;41.40;;;;;;5051991;28;20033;-73
2021/03/06 12:28:43;;;;;;;6.55;3.50;;;10.40;41.60;;;;;;5034202;28;20123;-72
2021/03/06 12:31:09;;;;;;;8.98;3.65;;;10.60;41.30;;;;;;5034065;28;20021;-71
2021/03/06 12:33:34;;;;;;;8.27;3.95;;;10.80;41.30;;;;;;5033533;28;20039;-71
2021/03/06 12:36:00;;;;;;;7.22;3.30;;;11.20;39.30;;;;;;5051635;28;20041;-73
2021/03/06 12:38:25;;;;;;;7.32;3.00;;;11.40;39.00;;;;;;5033727;28;20025;-72
2021/03/06 12:40:51;;;;;;;6.72;2.90;;;12.20;44.30;;;;;;5052001;28;20434;-72
2021/03/06 12:43:16;;;;;;;7.53;3.20;;;12.80;40.70;;;;;;5033599;28;20028;-72
2021/03/06 12:45:42;;;;;;;7.53;3.15;;;13.40;37.00;;;;;;5051694;28;20357;-73